Aeroporto :
LOGIN :

Iscrizione | Disclaimer

   EN    FR    IT 

 










Sommario :    VFR   VFR Marginale   IFR   IFR Intensivo   IFR Molto Intensivo
Visibilità : 
Base nubi : 
>= 8 km
>= 3000ft
5 / 8 km
1000 / 3000 ft
1500m / 5 km
500 / 1000 ft
800 / 1500m
200 / 500 ft
< 800m
< 200 ft
Simboli :   Temporali  Nebbia  Neve Forte  Precipitazioni Forti  Vento > 20 kt
SIGMETs :   Varie  Temporali  Ghiacco  Turbolenza  Onda orograficha  Ceneri Vulcaniche






- Altitudine del aeroporto : 256 ft
- Codice IATA : KUN


EYKA - Kaunas

ULTIMO METAR :
  • 032020Z 21006KT 160V250 9999 BKN032 03/M03 Q1008

METARs OBSOLETI :
  • 031950Z 24008KT 9999 BKN033 03/M03 Q1008
  • 031920Z 21005KT 160V250 CAVOK 02/M03 Q1008
  • 031850Z 24009KT 9999 BKN033 03/M03 Q1008
  • 031820Z 25008KT 9999 SCT039 04/M04 Q1007
  • 031750Z 27011KT 9999 BKN041 05/M04 Q1007

TAF TAF EYKA
Valido dal 03 a 18 ore il 04 a 18 ore UTC


031700Z 0318/0418 25014G24KT 9000 BKN025
TEMPO 0318/0321 5000 SHRASN SCT005 BKN015CB
TEMPO 0321/0403 1500 SHSNRA BKN005 BKN015CB
PROB40
TEMPO 0321/0401 TS
TEMPO 0403/0407 BKN005



MetMap, La meteo Aeronautica in un colpo d'occhio ! - Copyright ORBIFLY Dicembre 2007 - Disclaimer

ORBIFLY MET'MAP TEAM :

Programmazione e sviluppo : Alexandra Zaïnal
Concezione : Baudouin d'Aumeries
Aiuto per la programmazione : Marc-Olivier Méhu
Supporto tecnico e logistico : Manuel Goepfert
Aiuto per la traduzione : Arnaldo La Scala

Contatto : metmap@orbifly.com




FONTI E CREDITI :

   NOAA